Trochu, Canada
Current Conditions -  °F | °C
As of 5:00 PM on Saturday 25 Oct 2014 (Local Time) from CYQF Reporting Station
Broken Clouds Broken Clouds  
Wind Chill: 39°   Ceiling: 4300
Heat Index: 46°   Visibility: 15mi
Dew Point: 21°   Wind: 18mph
Humidity: 37%   Direction: 130°SE
Pressure: 29.64"   Gusts: 25mph
Location:  51.83°N, 113.23°W
Report Text: CYQF 252300Z 13016G22KT 15SM BKN043 08/M06 A2964 RMK SC7 SLP071 DENSITY ALT 3100FT
Loading
Personal Weather Stations






























Interactive Weather Map
Tropical Storm Tracking
New forecast layout! Learn more

10-Day Weather Forecast

Advertisements
Track Severe Weather on mobile